Time;durP1;ratioP1;P1;durP2;ratioP2;P2;SDS_P1;SDS_P2;PMS_P1;PMS_P2;Temp;Humidity;BMP_temperature;BMP_pressure;BME280_temperature;BME280_humidity;BME280_pressure;Samples;Min_cycle;Max_cycle;Signal;HPM_P1;HPM_P2
2022/10/30 00:00:43;;;;;;;32.47;17.05;;;;;;;13.31;100.00;100732.53;5049532;28;20049;-71
2022/10/30 00:03:14;;;;;;;23.25;16.15;;;;;;;13.33;100.00;100735.13;5041022;28;20132;-73
2022/10/30 00:05:43;;;;;;;27.77;17.33;;;;;;;13.32;100.00;100731.59;5036192;28;20141;-72
2022/10/30 00:08:11;;;;;;;25.25;17.30;;;;;;;13.33;100.00;100735.97;5036714;28;20580;-72
2022/10/30 00:10:38;;;;;;;29.92;17.17;;;;;;;13.22;100.00;100706.41;5051939;28;20052;-72
2022/10/30 00:13:05;;;;;;;26.80;16.60;;;;;;;13.31;100.00;100729.00;5048564;28;20548;-73
2022/10/30 00:15:32;;;;;;;31.67;18.48;;;;;;;13.33;100.00;100719.16;5038259;28;20514;-72
2022/10/30 00:17:58;;;;;;;23.40;17.08;;;;;;;13.35;100.00;100725.25;5044134;28;20052;-72
2022/10/30 00:20:26;;;;;;;25.75;16.98;;;;;;;13.33;100.00;100719.16;5056352;28;20048;-73
2022/10/30 00:22:52;;;;;;;29.92;17.40;;;;;;;13.33;100.00;100721.81;5047123;28;20112;-72
2022/10/30 00:25:19;;;;;;;24.88;17.05;;;;;;;13.32;100.00;100715.63;5047092;28;20507;-71
2022/10/30 00:27:46;;;;;;;25.73;17.52;;;;;;;13.29;100.00;100709.63;5047160;28;20163;-72
2022/10/30 00:30:14;;;;;;;26.77;17.48;;;;;;;13.31;100.00;100713.91;5044681;28;20041;-72
2022/10/30 00:32:41;;;;;;;25.73;16.77;;;;;;;13.20;100.00;100697.69;5045960;28;20540;-72
2022/10/30 00:35:09;;;;;;;23.77;17.02;;;;;;;13.26;100.00;100712.44;5051405;28;20132;-72
2022/10/30 00:37:36;;;;;;;27.20;17.08;;;;;;;13.29;100.00;100717.59;5048402;28;20090;-72
2022/10/30 00:40:04;;;;;;;25.23;16.98;;;;;;;13.25;100.00;100708.06;5045697;28;20044;-72
2022/10/30 00:42:30;;;;;;;30.40;19.13;;;;;;;13.31;100.00;100719.25;5056456;28;20580;-72
2022/10/30 00:44:57;;;;;;;28.13;18.20;;;;;;;13.21;100.00;100707.38;5050952;28;20386;-72
2022/10/30 00:47:29;;;;;;;30.40;18.52;;;;;;;13.27;100.00;100719.47;5042921;28;20143;-72
2022/10/30 00:50:18;;;;;;;31.10;18.77;;;;;;;13.24;100.00;100725.81;5039886;28;20048;-72
2022/10/30 00:53:11;;;;;;;36.47;18.58;;;;;;;13.19;100.00;100721.69;5065268;28;20071;-72
2022/10/30 00:55:53;;;;;;;31.00;18.98;;;;;;;13.14;100.00;100719.22;5042891;28;20049;-73
2022/10/30 00:58:29;;;;;;;26.00;16.58;;;;;;;13.13;100.00;100727.28;5039631;28;20540;-71
2022/10/30 01:00:59;;;;;;;28.65;19.15;;;;;;;13.06;100.00;100720.59;5049315;28;20041;-73
2022/10/30 01:03:28;;;;;;;34.25;19.13;;;;;;;13.00;100.00;100721.75;5051314;28;20049;-73
2022/10/30 01:05:59;;;;;;;25.33;18.55;;;;;;;12.95;100.00;100721.97;5048509;28;20057;-73
2022/10/30 01:08:26;;;;;;;32.85;18.92;;;;;;;12.90;100.00;100716.06;5039730;28;20497;-74
2022/10/30 01:10:53;;;;;;;27.60;17.33;;;;;;;12.80;100.00;100698.84;5045229;28;20045;-74
2022/10/30 01:13:22;;;;;;;28.67;18.65;;;;;;;12.84;100.00;100703.06;5048925;28;20045;-73
2022/10/30 01:16:24;;;;;;;31.38;18.98;;;;;;;12.87;100.00;100707.38;5049636;28;20048;-72
2022/10/30 01:19:00;;;;;;;30.73;18.27;;;;;;;12.88;100.00;100707.31;5034129;28;20048;-72
2022/10/30 01:21:49;;;;;;;25.58;16.60;;;;;;;12.88;100.00;100711.75;5056737;28;20549;-72
2022/10/30 01:24:45;;;;;;;29.77;19.05;;;;;;;12.88;100.00;100704.66;5052511;28;20122;-71
2022/10/30 01:27:32;;;;;;;30.33;17.75;;;;;;;12.88;100.00;100707.31;5044870;28;20043;-74
2022/10/30 01:30:02;;;;;;;30.25;18.50;;;;;;;12.85;100.00;100702.13;5049680;28;20041;-72
2022/10/30 01:32:48;;;;;;;26.88;18.88;;;;;;;12.86;100.00;100710.97;5042136;28;20049;-72
2022/10/30 01:35:27;;;;;;;28.65;18.10;;;;;;;12.86;100.00;100703.88;5054041;28;20524;-73
2022/10/30 01:38:06;;;;;;;36.10;18.45;;;;;;;12.88;100.00;100706.44;5041989;28;20136;-72
2022/10/30 01:40:32;;;;;;;30.05;17.60;;;;;;;12.81;100.00;100689.94;5057008;28;20413;-72
2022/10/30 01:42:59;;;;;;;27.45;17.23;;;;;;;12.86;100.00;100703.88;5060030;28;20417;-72
2022/10/30 01:45:54;;;;;;;24.27;17.80;;;;;;;12.84;100.00;100692.44;5049718;28;20464;-73
2022/10/30 01:48:45;;;;;;;26.38;17.13;;;;;;;12.67;100.00;100660.56;5030948;28;20073;-73
2022/10/30 01:51:39;;;;;;;24.95;16.83;;;;;;;12.77;100.00;100676.88;5060806;28;20041;-72
2022/10/30 01:54:28;;;;;;;28.45;17.73;;;;;;;12.78;100.00;100682.13;5043257;28;20132;-72
2022/10/30 01:57:31;;;;;;;29.42;19.35;;;;;;;12.84;100.00;100688.94;5057936;28;20128;-72
2022/10/30 02:00:08;;;;;;;33.40;18.23;;;;;;;12.86;100.00;100700.34;5039506;28;20049;-72
2022/10/30 02:02:35;;;;;;;27.00;17.73;;;;;;;12.83;100.00;100690.72;5042901;28;20041;-72
2022/10/30 02:05:05;;;;;;;28.67;19.13;;;;;;;12.81;100.00;100686.41;5058729;28;20044;-72
2022/10/30 02:07:32;;;;;;;31.25;19.90;;;;;;;12.77;100.00;100687.50;5050212;28;20069;-72
2022/10/30 02:09:59;;;;;;;29.73;18.98;;;;;;;12.73;100.00;100694.81;5043965;28;20512;-73
2022/10/30 02:12:26;;;;;;;31.50;19.10;;;;;;;12.69;100.00;100690.56;5061412;28;20139;-72
2022/10/30 02:14:57;;;;;;;29.10;18.48;;;;;;;12.70;100.00;100696.75;5044819;28;20040;-71
2022/10/30 02:17:24;;;;;;;29.08;18.20;;;;;;;12.62;100.00;100689.16;5047745;28;20118;-72
2022/10/30 02:19:50;;;;;;;25.08;17.17;;;;;;;12.62;100.00;100702.44;5048771;28;20054;-72
2022/10/30 02:22:17;;;;;;;24.88;17.05;;;;;;;12.54;100.00;100704.63;5050840;28;20481;-72
2022/10/30 02:24:44;;;;;;;25.40;17.35;;;;;;;12.34;100.00;100684.38;5044899;28;20060;-72
2022/10/30 02:27:11;;;;;;;25.17;16.13;;;;;;;12.44;100.00;100700.69;5044632;28;20091;-72
2022/10/30 02:29:38;;;;;;;24.75;15.98;;;;;;;12.35;100.00;100685.22;5035957;28;20052;-72
2022/10/30 02:32:04;;;;;;;23.75;15.88;;;;;;;12.40;100.00;100705.31;5047752;28;20512;-72
2022/10/30 02:34:31;;;;;;;26.45;16.10;;;;;;;12.32;100.00;100707.47;5047833;28;20040;-72
2022/10/30 02:36:57;;;;;;;27.88;16.67;;;;;;;12.21;100.00;100713.31;5043787;28;20041;-71
2022/10/30 02:39:24;;;;;;;22.67;14.90;;;;;;;12.18;100.00;100708.16;5037367;28;20442;-72
2022/10/30 02:41:50;;;;;;;26.25;16.48;;;;;;;12.19;100.00;100720.50;5046954;28;20055;-73
2022/10/30 02:44:17;;;;;;;24.58;16.45;;;;;;;12.16;100.00;100712.69;5043922;28;20123;-71
2022/10/30 02:46:44;;;;;;;27.00;16.33;;;;;;;12.21;100.00;100715.97;5036028;28;20455;-72
2022/10/30 02:49:10;;;;;;;27.63;16.52;;;;;;;12.28;100.00;100708.56;5035440;28;20068;-72
2022/10/30 02:51:37;;;;;;;28.13;15.82;;;;;;;12.29;100.00;100711.16;5042224;28;20558;-72
2022/10/30 02:54:03;;;;;;;26.05;15.00;;;;;;;12.31;100.00;100713.72;5053136;28;20079;-72
2022/10/30 02:56:30;;;;;;;29.77;17.45;;;;;;;12.28;100.00;100709.41;5051921;28;20136;-72
2022/10/30 02:58:56;;;;;;;25.33;17.00;;;;;;;12.24;100.00;100696.38;5036260;28;20045;-72
2022/10/30 03:01:23;;;;;;;27.75;16.08;;;;;;;12.25;100.00;100691.00;5048898;28;20048;-72
2022/10/30 03:03:50;;;;;;;27.13;16.75;;;;;;;12.38;100.00;100709.84;5044142;28;20041;-71
2022/10/30 03:06:16;;;;;;;25.95;15.25;;;;;;;12.43;100.00;100721.13;5054353;28;20122;-71
2022/10/30 03:08:43;;;;;;;26.10;15.55;;;;;;;12.52;100.00;100717.13;5032298;28;20084;-72
2022/10/30 03:11:13;;;;;;;22.92;15.40;;;;;;;12.54;100.00;100721.44;5046517;28;20507;-72
2022/10/30 03:13:41;;;;;;;24.60;16.02;;;;;;;12.59;100.00;100719.38;5045959;28;20707;-72
2022/10/30 03:16:10;;;;;;;23.33;15.30;;;;;;;12.63;100.00;100710.34;5053935;28;20044;-71
2022/10/30 03:18:36;;;;;;;26.13;15.63;;;;;;;12.64;100.00;100711.19;5043929;28;20527;-72
2022/10/30 03:21:05;;;;;;;24.55;15.40;;;;;;;12.73;100.00;100702.78;5039864;28;20552;-72
2022/10/30 03:23:33;;;;;;;24.15;15.45;;;;;;;12.79;100.00;100699.78;5056316;28;20616;-72
2022/10/30 03:26:00;;;;;;;24.17;15.52;;;;;;;12.85;100.00;100691.50;5046948;28;20148;-71
2022/10/30 03:28:28;;;;;;;25.80;15.82;;;;;;;12.79;100.00;100675.00;5036551;28;20065;-73
2022/10/30 03:31:03;;;;;;;28.95;15.18;;;;;;;12.81;100.00;100689.06;5032394;28;20449;-73
2022/10/30 03:33:31;;;;;;;21.92;15.52;;;;;;;12.92;100.00;100706.19;5038575;28;20043;-73
2022/10/30 03:35:58;;;;;;;28.08;17.27;;;;;;;12.88;100.00;100704.66;5044418;28;20045;-73
2022/10/30 03:38:26;;;;;;;27.83;15.35;;;;;;;12.93;100.00;100710.56;5039428;28;20059;-73
2022/10/30 03:40:53;;;;;;;23.15;15.23;;;;;;;12.90;100.00;100708.09;5034857;28;20068;-73
2022/10/30 03:43:20;;;;;;;22.05;14.95;;;;;;;12.93;100.00;100705.25;5043904;28;20045;-73
2022/10/30 03:45:48;;;;;;;22.63;15.02;;;;;;;12.90;100.00;100701.91;5049528;28;20053;-73
2022/10/30 03:48:16;;;;;;;21.90;14.93;;;;;;;12.92;100.00;100703.53;5038586;28;20041;-73
2022/10/30 03:50:43;;;;;;;24.23;17.45;;;;;;;12.93;100.00;100697.28;5038444;28;20052;-73
2022/10/30 03:53:09;;;;;;;26.45;15.50;;;;;;;12.92;100.00;100694.69;5045082;28;20076;-73
2022/10/30 03:55:36;;;;;;;23.20;15.18;;;;;;;12.97;100.00;100697.97;5050100;28;20063;-72
2022/10/30 03:58:04;;;;;;;25.08;15.70;;;;;;;12.95;100.00;100691.88;5041812;28;20405;-72
2022/10/30 04:00:32;;;;;;;23.38;15.32;;;;;;;12.84;100.00;100676.50;5040946;28;20055;-72
2022/10/30 04:02:59;;;;;;;26.42;16.52;;;;;;;12.95;100.00;100694.53;5043315;28;20758;-72
2022/10/30 04:05:27;;;;;;;23.17;14.50;;;;;;;12.89;100.00;100690.41;5042526;28;20095;-72
2022/10/30 04:07:59;;;;;;;21.75;14.88;;;;;;;12.89;100.00;100690.41;5042556;28;20119;-72
2022/10/30 04:10:26;;;;;;;24.77;15.88;;;;;;;12.80;100.00;100676.72;5036033;28;20098;-71
2022/10/30 04:12:59;;;;;;;22.25;15.75;;;;;;;12.93;100.00;100702.59;5045970;28;20515;-72
2022/10/30 04:15:26;;;;;;;21.45;16.05;;;;;;;12.94;100.00;100706.97;5040157;28;20524;-72
2022/10/30 04:17:53;;;;;;;28.83;16.40;;;;;;;12.95;100.00;100705.16;5041675;28;20086;-72
2022/10/30 04:20:22;;;;;;;24.13;16.30;;;;;;;12.94;100.00;100698.13;5042586;28;20080;-72
2022/10/30 04:22:54;;;;;;;26.50;16.60;;;;;;;12.94;100.00;100701.66;5040285;28;20143;-72
2022/10/30 04:25:20;;;;;;;24.83;15.82;;;;;;;12.94;100.00;100700.78;5045404;28;20067;-72
2022/10/30 04:27:48;;;;;;;24.42;14.80;;;;;;;12.87;100.00;100697.59;5049001;28;20056;-73
2022/10/30 04:30:14;;;;;;;25.65;16.35;;;;;;;12.87;100.00;100696.75;5038038;28;20038;-71
2022/10/30 04:32:48;;;;;;;24.20;15.93;;;;;;;12.76;100.00;100688.44;5037929;28;20060;-73
2022/10/30 04:35:17;;;;;;;23.80;15.65;;;;;;;12.82;100.00;100696.13;5039622;28;20043;-72
2022/10/30 04:38:00;;;;;;;24.90;15.30;;;;;;;12.67;100.00;100675.66;5041233;28;20040;-72
2022/10/30 04:40:29;;;;;;;23.92;15.60;;;;;;;12.69;100.00;100685.25;5034915;28;20048;-71
2022/10/30 04:42:56;;;;;;;21.52;14.93;;;;;;;12.70;100.00;100696.75;5040929;28;20055;-72
2022/10/30 04:45:23;;;;;;;24.48;16.52;;;;;;;12.66;100.00;100698.69;5044534;28;20051;-73
2022/10/30 04:47:51;;;;;;;25.85;16.65;;;;;;;12.56;100.00;100685.03;5042628;28;20075;-73
2022/10/30 04:50:18;;;;;;;27.20;16.63;;;;;;;12.47;100.00;100672.19;5037321;28;20041;-74
2022/10/30 04:52:44;;;;;;;23.10;14.63;;;;;;;12.54;100.00;100694.00;5049381;28;20140;-73
2022/10/30 04:55:11;;;;;;;25.17;14.93;;;;;;;12.49;100.00;100701.34;5037758;28;20041;-73
2022/10/30 04:57:37;;;;;;;28.17;14.68;;;;;;;12.46;100.00;100701.47;5046706;28;20057;-73
2022/10/30 05:00:05;;;;;;;21.75;14.68;;;;;;;12.35;100.00;100688.75;5036214;28;20409;-72
2022/10/30 05:02:35;;;;;;;23.48;15.35;;;;;;;12.32;100.00;100696.00;5040981;28;20096;-73
2022/10/30 05:05:03;;;;;;;27.40;14.80;;;;;;;12.25;100.00;100698.13;5044736;28;20398;-73
2022/10/30 05:07:30;;;;;;;22.40;15.05;;;;;;;12.21;100.00;100701.84;5051231;28;20187;-73
2022/10/30 05:09:57;;;;;;;23.30;14.90;;;;;;;12.15;100.00;100699.47;5031941;28;20045;-73
2022/10/30 05:12:23;;;;;;;25.08;15.23;;;;;;;12.18;100.00;100702.84;5050849;28;20459;-73
2022/10/30 05:14:50;;;;;;;24.23;14.82;;;;;;;12.16;100.00;100701.19;5044792;28;20057;-73
2022/10/30 05:17:16;;;;;;;23.73;14.93;;;;;;;12.09;100.00;100698.00;5039343;28;20537;-73
2022/10/30 05:19:43;;;;;;;20.25;14.15;;;;;;;12.01;100.00;100684.22;5036943;28;20061;-73
2022/10/30 05:22:10;;;;;;;19.70;13.18;;;;;;;12.13;100.00;100704.00;5047174;28;20044;-73
2022/10/30 05:24:36;;;;;;;22.40;14.27;;;;;;;12.04;100.00;100691.19;5038479;28;20416;-73
2022/10/30 05:27:03;;;;;;;21.40;13.07;;;;;;;12.05;100.00;100698.22;5040859;28;20053;-72
2022/10/30 05:29:29;;;;;;;32.45;19.45;;;;;;;12.02;100.00;100693.91;5038288;28;20044;-72
2022/10/30 05:31:56;;;;;;;21.60;14.55;;;;;;;11.91;100.00;100683.81;5044164;28;20053;-72
2022/10/30 05:34:22;;;;;;;27.10;14.40;;;;;;;11.96;100.00;100691.56;5044506;28;20047;-73
2022/10/30 05:36:49;;;;;;;25.33;14.40;;;;;;;11.93;100.00;100695.22;5045564;28;20622;-72
2022/10/30 05:39:16;;;;;;;20.48;14.02;;;;;;;11.89;100.00;100685.69;5038009;28;20041;-72
2022/10/30 05:41:42;;;;;;;25.58;13.40;;;;;;;11.83;100.00;100669.19;5040937;28;20057;-72
2022/10/30 05:44:09;;;;;;;20.48;13.30;;;;;;;11.96;100.00;100691.56;5044574;28;20061;-72
2022/10/30 05:46:35;;;;;;;27.55;14.82;;;;;;;11.94;100.00;100691.63;5046150;28;20072;-72
2022/10/30 05:49:02;;;;;;;24.38;14.85;;;;;;;11.86;100.00;100674.34;5041913;28;20089;-72
2022/10/30 05:51:29;;;;;;;25.25;14.43;;;;;;;11.95;100.00;100681.88;5040796;28;20513;-73
2022/10/30 05:53:56;;;;;;;25.90;15.07;;;;;;;12.02;100.00;100695.69;5044872;28;20306;-72
2022/10/30 05:56:22;;;;;;;23.48;15.48;;;;;;;11.99;100.00;100690.53;5046671;28;20047;-72
2022/10/30 05:58:49;;;;;;;23.92;14.57;;;;;;;12.03;100.00;100708.91;5045455;28;20045;-73
2022/10/30 06:01:16;;;;;;;23.20;14.52;;;;;;;11.96;100.00;100690.72;5033256;28;20666;-72
2022/10/30 06:03:43;;;;;;;19.05;12.63;;;;;;;11.98;100.00;100694.97;5048124;28;20048;-72
2022/10/30 06:06:10;;;;;;;21.50;13.88;;;;;;;12.06;100.00;100703.44;5048269;28;20053;-72
2022/10/30 06:08:36;;;;;;;21.63;14.05;;;;;;;12.05;100.00;100707.03;5042882;28;20048;-71
2022/10/30 06:11:03;;;;;;;19.95;13.90;;;;;;;12.03;100.00;100708.91;5036334;28;20057;-72
2022/10/30 06:13:30;;;;;;;25.38;13.57;;;;;;;12.01;100.00;100713.41;5045536;28;20049;-72
2022/10/30 06:15:56;;;;;;;26.60;14.63;;;;;;;12.00;100.00;100717.00;5047229;28;20110;-73
2022/10/30 06:18:23;;;;;;;20.38;13.90;;;;;;;12.01;100.00;100710.75;5045656;28;20136;-72
2022/10/30 06:20:50;;;;;;;28.33;14.38;;;;;;;12.02;100.00;100717.78;5029747;28;20098;-72
2022/10/30 06:23:16;;;;;;;25.50;14.75;;;;;;;12.01;100.00;100720.53;5036198;28;20041;-72
2022/10/30 06:25:43;;;;;;;22.65;14.45;;;;;;;11.92;100.00;100701.47;5044371;28;20081;-72
2022/10/30 06:28:10;;;;;;;20.85;14.05;;;;;;;11.98;100.00;100713.56;5040810;28;20037;-72
2022/10/30 06:30:37;;;;;;;22.38;14.15;;;;;;;11.96;100.00;100703.97;5032285;28;20086;-72
2022/10/30 06:33:04;;;;;;;22.02;14.57;;;;;;;11.99;100.00;100717.94;5041496;28;20140;-73
2022/10/30 06:35:31;;;;;;;23.92;13.82;;;;;;;11.90;100.00;100699.81;5039270;28;20045;-72
2022/10/30 06:38:01;;;;;;;19.80;13.93;;;;;;;11.91;100.00;100704.19;5045818;28;20128;-72
2022/10/30 06:40:30;;;;;;;21.20;13.93;;;;;;;11.96;100.00;100712.81;5034010;28;20046;-72
2022/10/30 06:42:57;;;;;;;23.77;14.73;;;;;;;12.04;100.00;100723.03;5047185;28;20057;-72
2022/10/30 06:45:24;;;;;;;24.05;14.70;;;;;;;12.02;100.00;100727.56;5033308;28;20513;-72
2022/10/30 06:47:51;;;;;;;21.73;14.60;;;;;;;12.06;100.00;100730.00;5051470;28;20350;-72
2022/10/30 06:50:20;;;;;;;20.83;13.63;;;;;;;12.06;100.00;100730.00;5029914;28;20386;-72
2022/10/30 06:52:48;;;;;;;23.13;14.27;;;;;;;12.05;100.00;100720.31;5047527;28;20774;-72
2022/10/30 06:55:15;;;;;;;23.63;13.70;;;;;;;12.14;100.00;100737.56;5048203;28;20063;-74
2022/10/30 06:57:41;;;;;;;27.50;14.02;;;;;;;12.21;100.00;100729.25;5036541;28;20056;-73
2022/10/30 07:00:09;;;;;;;17.98;12.95;;;;;;;12.25;100.00;100732.63;5034002;28;20049;-73
2022/10/30 07:02:35;;;;;;;23.17;14.02;;;;;;;12.31;100.00;100727.00;5043490;28;20133;-73
2022/10/30 07:05:02;;;;;;;20.10;13.45;;;;;;;12.22;100.00;100712.41;5037038;28;20041;-72
2022/10/30 07:07:29;;;;;;;21.42;13.73;;;;;;;12.43;100.00;100722.91;5041743;28;20077;-72
2022/10/30 07:09:57;;;;;;;22.73;13.20;;;;;;;12.50;100.00;100726.97;5037299;28;20045;-73
2022/10/30 07:12:24;;;;;;;21.77;14.00;;;;;;;12.55;100.00;100724.94;5040442;28;20063;-72
2022/10/30 07:14:51;;;;;;;20.23;13.50;;;;;;;12.65;100.00;100723.53;5038746;28;20421;-72
2022/10/30 07:17:17;;;;;;;21.92;13.85;;;;;;;12.77;100.00;100728.22;5046779;28;20068;-72
2022/10/30 07:19:44;;;;;;;22.13;13.80;;;;;;;12.93;100.00;100728.31;5044033;28;20041;-72
2022/10/30 07:22:10;;;;;;;19.85;13.40;;;;;;;13.09;100.00;100728.38;5043021;28;20505;-73
2022/10/30 07:24:37;;;;;;;19.17;13.40;;;;;;;13.20;100.00;100724.28;5032380;28;20053;-72
2022/10/30 07:27:03;;;;;;;17.33;12.77;;;;;;;13.32;100.00;100728.06;5042077;28;20056;-72
2022/10/30 07:29:30;;;;;;;23.67;12.82;;;;;;;13.47;100.00;100721.09;5036765;28;20137;-72
2022/10/30 07:31:56;;;;;;;22.10;13.18;;;;;;;13.62;100.00;100718.44;5039206;28;20049;-71
2022/10/30 07:34:28;;;;;;;19.08;12.18;;;;;;;13.70;100.00;100704.72;5048052;28;20501;-72
2022/10/30 07:36:55;;;;;;;21.55;12.90;;;;;;;13.89;100.00;100715.19;5042160;28;20398;-72
2022/10/30 07:39:21;;;;;;;21.80;12.50;;;;;;;14.08;100.00;100725.69;5049838;28;20452;-72
2022/10/30 07:41:49;;;;;;;15.32;12.00;;;;;;;14.25;100.00;100738.91;5039113;28;20053;-72
2022/10/30 07:44:16;;;;;;;25.92;13.68;;;;;;;14.42;100.00;100746.00;5038244;28;20042;-73
2022/10/30 07:46:43;;;;;;;20.27;14.20;;;;;;;14.44;100.00;100722.78;5043879;28;20117;-72
2022/10/30 07:49:09;;;;;;;23.60;15.00;;;;;;;14.72;100.00;100739.75;5034219;28;20045;-72
2022/10/30 07:51:36;;;;;;;19.90;13.98;;;;;;;14.95;100.00;100740.19;5037102;28;20045;-73
2022/10/30 07:54:02;;;;;;;20.40;14.35;;;;;;;15.08;100.00;100731.38;5043065;28;20047;-72
2022/10/30 07:56:29;;;;;;;21.35;13.00;;;;;;;15.27;100.00;100751.56;5043802;28;20132;-72
2022/10/30 07:58:56;;;;;;;20.17;13.05;;;;;;;15.30;100.00;100748.72;5037714;28;20060;-73
2022/10/30 08:01:22;;;;;;;20.17;11.65;;;;;;;15.23;100.00;100742.06;5041557;28;20041;-75
2022/10/30 08:03:49;;;;;;;19.52;12.27;;;;;;;15.25;100.00;100749.03;5034818;28;20045;-73
2022/10/30 08:06:16;;;;;;;18.15;11.77;;;;;;;15.30;100.00;100752.25;5040387;28;20047;-73
2022/10/30 08:08:48;;;;;;;18.90;11.20;;;;;;;15.34;100.00;100753.78;5043168;28;20419;-73
2022/10/30 08:11:14;;;;;;;15.00;11.02;;;;;;;15.26;100.00;100726.72;5037281;28;20132;-72
2022/10/30 08:13:41;;;;;;;19.63;12.25;;;;;;;15.40;100.00;100747.22;5042842;28;20160;-73
2022/10/30 08:16:08;;;;;;;19.35;11.13;;;;;;;15.31;100.00;100729.09;5045059;28;20135;-72
2022/10/30 08:18:34;;;;;;;21.67;12.60;;;;;;;15.49;100.00;100756.47;5039010;28;20071;-74
2022/10/30 08:21:01;;;;;;;17.05;11.80;;;;;;;15.53;100.00;100748.19;5036537;28;20049;-72
2022/10/30 08:23:27;;;;;;;17.23;11.27;;;;;;;15.53;100.00;100732.16;5036353;28;20052;-71
2022/10/30 08:25:59;;;;;;;17.50;12.50;;;;;;;15.59;100.00;100737.16;5036367;28;20073;-72
2022/10/30 08:28:26;;;;;;;18.60;11.45;;;;;;;15.73;100.00;100755.84;5037695;28;20500;-72
2022/10/30 08:30:59;;;;;;;17.48;10.90;;;;;;;15.74;100.00;100751.38;5033153;28;20120;-72
2022/10/30 08:33:26;;;;;;;17.63;11.00;;;;;;;15.70;100.00;100737.34;5042136;28;20045;-73
2022/10/30 08:35:58;;;;;;;20.92;11.95;;;;;;;15.89;100.00;100760.22;5038672;28;20083;-73
2022/10/30 08:38:25;;;;;;;17.00;10.93;;;;;;;15.95;100.00;100755.34;5042407;28;20128;-72
2022/10/30 08:40:52;;;;;;;20.02;13.43;;;;;;;16.00;100.00;100758.59;5038670;28;20056;-74
2022/10/30 08:43:19;;;;;;;19.70;12.95;;;;;;;15.93;100.00;100748.38;5042961;28;20490;-73
2022/10/30 08:45:46;;;;;;;18.10;11.75;;;;;;;16.04;100.00;100760.13;5043103;28;20049;-73
2022/10/30 08:48:14;;;;;;;19.17;12.25;;;;;;;16.18;100.00;100761.91;5035899;28;20647;-74
2022/10/30 08:50:41;;;;;;;21.67;12.95;;;;;;;16.32;100.00;100761.88;5041255;28;20136;-75
2022/10/30 08:53:10;;;;;;;18.75;12.70;;;;;;;16.44;100.00;100758.38;5034383;28;20057;-73
2022/10/30 08:55:37;;;;;;;19.87;12.70;;;;;;;16.55;100.00;100763.00;5029287;28;20052;-72
2022/10/30 08:58:04;;;;;;;18.55;12.15;;;;;;;16.67;100.00;100756.91;5029492;28;20491;-72
2022/10/30 09:00:30;;;;;;;25.45;13.75;;;;;;;16.78;100.00;100757.03;5037578;28;20045;-72
2022/10/30 09:02:57;;;;;;;23.13;14.43;;;;;;;16.86;100.00;100759.19;5033778;28;20183;-73
2022/10/30 09:05:24;;;;;;;24.77;14.02;;;;;;;16.99;100.00;100762.78;5035334;28;20151;-72
2022/10/30 09:07:55;;;;;;;24.08;14.23;;;;;;;17.08;100.00;100750.56;5033268;28;20076;-72
2022/10/30 09:10:22;;;;;;;22.65;14.25;;;;;;;17.15;100.00;100746.53;5031058;28;20057;-71
2022/10/30 09:12:59;;;;;;;25.30;15.15;;;;;;;17.12;100.00;100726.19;5024609;28;20048;-71
2022/10/30 09:15:25;;;;;;;21.67;14.98;;;;;;;17.17;100.00;100750.78;5033739;28;20088;-71
2022/10/30 09:18:00;;;;;;;19.38;13.30;;;;;;;17.17;100.00;100742.75;5035662;28;20041;-70
2022/10/30 09:20:29;;;;;;;23.15;13.00;;;;;;;17.26;100.00;100738.63;5035250;28;20046;-73
2022/10/30 09:22:55;;;;;;;18.42;12.18;;;;;;;17.39;100.00;100738.63;5037256;28;20110;-71
2022/10/30 09:25:23;;;;;;;20.05;12.18;;;;;;;17.42;100.00;100715.16;5028619;28;20056;-70
2022/10/30 09:27:49;;;;;;;19.67;12.60;;;;;;;17.64;100.00;100735.09;5029832;28;20049;-70
2022/10/30 09:30:16;;;;;;;20.80;13.52;;;;;;;17.76;100.00;100744.97;5028656;28;20550;-71
2022/10/30 09:32:42;;;;;;;21.52;13.63;;;;;;;17.81;100.00;100737.44;5030339;28;20411;-71
2022/10/30 09:35:09;;;;;;;19.13;12.25;;;;;;;17.83;100.00;100736.34;5030848;28;20059;-72
2022/10/30 09:37:36;;;;;;;27.58;13.68;;;;;;;17.85;100.00;100739.78;5040973;28;20048;-69
2022/10/30 09:40:06;;;;;;;31.08;14.93;;;;;;;17.81;100.00;100746.31;5030180;28;20570;-71
2022/10/30 09:42:46;;;;;;;27.00;14.48;;;;;;;17.83;100.00;100746.22;5026712;28;20143;-72
2022/10/30 09:45:31;;;;;;;24.15;14.10;;;;;;;17.79;100.00;100750.91;5040145;28;20147;-71
2022/10/30 09:48:13;;;;;;;25.98;15.75;;;;;;;17.73;100.00;100746.03;5034033;28;20053;-73
2022/10/30 09:50:58;;;;;;;21.40;14.30;;;;;;;17.72;100.00;100738.94;5028103;28;20049;-71
2022/10/30 09:53:31;;;;;;;30.30;15.10;;;;;;;17.54;100.00;100726.81;5033860;28;20041;-70
2022/10/30 09:56:14;;;;;;;28.08;12.88;;;;;;;17.65;100.00;100724.28;5036074;28;20045;-71
2022/10/30 09:58:53;;;;;;;28.80;13.77;;;;;;;17.84;100.00;100738.06;5040717;28;20135;-69
2022/10/30 10:01:31;;;;;;;23.15;13.77;;;;;;;17.71;100.00;100721.16;5033039;28;20059;-70
2022/10/30 10:04:17;;;;;;;22.95;13.90;;;;;;;17.60;100.00;100704.97;5037308;28;20484;-73
2022/10/30 10:06:55;;;;;;;23.65;14.25;;;;;;;17.76;100.00;100737.78;5046569;28;20056;-69
2022/10/30 10:09:25;;;;;;;23.63;13.75;;;;;;;17.74;100.00;100729.00;5040758;28;20055;-70
2022/10/30 10:12:01;;;;;;;25.10;14.10;;;;;;;17.86;100.00;100746.84;5033542;28;20044;-69
2022/10/30 10:14:33;;;;;;;24.55;13.30;;;;;;;17.94;100.00;100734.75;5045370;28;20041;-70
2022/10/30 10:17:03;;;;;;;22.08;13.57;;;;;;;18.12;100.00;100736.06;5039292;28;20049;-71
2022/10/30 10:19:54;;;;;;;23.75;13.75;;;;;;;18.41;100.00;100742.00;5040110;28;20048;-70
2022/10/30 10:22:49;;;;;;;23.30;12.20;;;;;;;18.64;100.00;100732.25;5025574;28;22381;-69
2022/10/30 10:25:19;;;;;;;22.52;11.93;;;;;;;18.75;98.42;100719.72;5044119;28;20132;-69
2022/10/30 10:27:55;;;;;;;;;;;;;;;18.99;96.58;100729.56;5036210;28;21847;-70
2022/10/30 10:30:23;;;;;;;23.85;11.18;;;;;;;19.06;94.53;100722.75;5037561;28;19921;-69
2022/10/30 10:33:14;;;;;;;19.92;12.07;;;;;;;19.09;91.87;100726.06;5025276;28;20042;-71
2022/10/30 10:35:57;;;;;;;17.35;10.40;;;;;;;19.18;92.48;100727.19;5036604;28;20056;-73
2022/10/30 10:38:33;;;;;;;19.92;10.95;;;;;;;19.35;91.17;100723.19;5033933;28;20041;-72
2022/10/30 10:41:31;;;;;;;18.08;10.68;;;;;;;19.49;90.76;100717.59;5034506;28;20094;-73
2022/10/30 10:44:00;;;;;;;23.15;11.52;;;;;;;19.58;88.07;100708.81;5035107;28;20103;-75
2022/10/30 10:46:52;;;;;;;20.55;11.88;;;;;;;19.33;86.75;100684.88;5037625;28;20049;-70
2022/10/30 10:49:34;;;;;;;19.77;11.45;;;;;;;19.48;88.30;100705.13;5034184;28;20045;-76
2022/10/30 10:52:15;;;;;;;21.63;10.18;;;;;;;19.65;88.24;100699.31;5040159;28;20134;-75
2022/10/30 10:54:51;;;;;;;18.98;9.90;;;;;;;19.84;85.70;100704.91;5040361;28;20052;-74
2022/10/30 10:57:33;;;;;;;15.95;8.60;;;;;;;20.01;85.50;100705.38;5032919;28;20049;-74
2022/10/30 11:00:03;;;;;;;17.08;8.38;;;;;;;20.14;84.66;100701.59;5036930;28;20063;-71
2022/10/30 11:02:46;;;;;;;;;;;;;;;20.23;82.92;100708.88;5031342;28;20065;-69
2022/10/30 11:05:16;;;;;;;16.45;9.38;;;;;;;20.24;81.56;100702.53;5025897;28;20648;-69
2022/10/30 11:07:48;;;;;;;17.05;9.90;;;;;;;20.27;82.45;100701.41;5028990;28;20053;-70
2022/10/30 11:10:17;;;;;;;23.85;10.77;;;;;;;20.22;80.54;100690.19;5038471;28;20126;-74
2022/10/30 11:12:44;;;;;;;17.70;8.73;;;;;;;20.03;78.29;100692.66;5032585;28;20099;-73
2022/10/30 11:15:35;;;;;;;19.60;9.15;;;;;;;20.02;79.90;100689.13;5032767;28;20053;-73